sensor_id;sensor_type;location;lat;lon;timestamp;pressure;altitude;pressure_sealevel;temperature;humidity
61205;BME280;47068;55.780;37.520;2024-02-23T00:01:02;100166.09;;;-1.46;88.81
61205;BME280;47068;55.780;37.520;2024-02-23T00:03:27;100171.16;;;-1.43;88.71
61205;BME280;47068;55.780;37.520;2024-02-23T00:05:53;100175.44;;;-1.42;88.20
61205;BME280;47068;55.780;37.520;2024-02-23T00:08:18;100171.31;;;-1.46;89.08
61205;BME280;47068;55.780;37.520;2024-02-23T00:10:44;100161.16;;;-1.52;88.41
61205;BME280;47068;55.780;37.520;2024-02-23T00:13:10;100194.81;;;-1.46;88.61
61205;BME280;47068;55.780;37.520;2024-02-23T00:15:35;100041.59;;;-2.47;88.90
61205;BME280;47068;55.780;37.520;2024-02-23T00:18:00;100174.66;;;-1.44;89.51
61205;BME280;47068;55.780;37.520;2024-02-23T00:20:28;100184.19;;;-1.43;89.20
61205;BME280;47068;55.780;37.520;2024-02-23T00:22:54;100170.84;;;-1.37;89.60
61205;BME280;47068;55.780;37.520;2024-02-23T00:25:19;100156.88;;;-1.53;89.65
61205;BME280;47068;55.780;37.520;2024-02-23T00:27:45;100154.34;;;-1.54;90.12
61205;BME280;47068;55.780;37.520;2024-02-23T00:30:12;100171.69;;;-1.36;90.16
61205;BME280;47068;55.780;37.520;2024-02-23T00:32:38;100181.44;;;-1.40;89.82
61205;BME280;47068;55.780;37.520;2024-02-23T00:35:03;100185.41;;;-1.50;90.15
61205;BME280;47068;55.780;37.520;2024-02-23T00:37:29;100190.81;;;-1.53;90.18
61205;BME280;47068;55.780;37.520;2024-02-23T00:39:54;100179.53;;;-1.53;90.13
61205;BME280;47068;55.780;37.520;2024-02-23T00:42:20;100184.03;;;-1.57;90.61
61205;BME280;47068;55.780;37.520;2024-02-23T00:44:46;100187.25;;;-1.52;90.81
61205;BME280;47068;55.780;37.520;2024-02-23T00:47:11;100187.25;;;-1.52;90.08
61205;BME280;47068;55.780;37.520;2024-02-23T00:49:37;100194.03;;;-1.48;90.60
61205;BME280;47068;55.780;37.520;2024-02-23T00:52:03;100183.91;;;-1.54;90.29
61205;BME280;47068;55.780;37.520;2024-02-23T00:54:28;100161.63;;;-1.61;90.68
61205;BME280;47068;55.780;37.520;2024-02-23T00:56:53;100192.56;;;-1.36;91.03
61205;BME280;47068;55.780;37.520;2024-02-23T00:59:19;100192.88;;;-1.42;90.20
61205;BME280;47068;55.780;37.520;2024-02-23T01:01:46;100192.72;;;-1.39;89.74
61205;BME280;47068;55.780;37.520;2024-02-23T01:04:11;100193.47;;;-1.37;89.58
61205;BME280;47068;55.780;37.520;2024-02-23T01:06:37;100179.88;;;-1.44;89.49
61205;BME280;47068;55.780;37.520;2024-02-23T01:09:02;100195.56;;;-1.27;90.03
61205;BME280;47068;55.780;37.520;2024-02-23T01:11:29;100199.56;;;-1.20;89.09
61205;BME280;47068;55.780;37.520;2024-02-23T01:13:55;100194.47;;;-1.23;88.59
61205;BME280;47068;55.780;37.520;2024-02-23T01:16:20;100151.88;;;-1.40;88.32
61205;BME280;47068;55.780;37.520;2024-02-23T01:18:45;100178.44;;;-1.32;88.29
61205;BME280;47068;55.780;37.520;2024-02-23T01:21:11;100169.06;;;-1.36;87.79
61205;BME280;47068;55.780;37.520;2024-02-23T01:23:36;100187.88;;;-1.30;88.21
61205;BME280;47068;55.780;37.520;2024-02-23T01:26:02;100185.19;;;-1.28;88.10
61205;BME280;47068;55.780;37.520;2024-02-23T01:28:27;100145.75;;;-1.56;88.22
61205;BME280;47068;55.780;37.520;2024-02-23T01:30:53;100181.44;;;-1.23;88.43
61205;BME280;47068;55.780;37.520;2024-02-23T01:33:19;100176.66;;;-1.14;88.56
61205;BME280;47068;55.780;37.520;2024-02-23T01:35:44;100189.00;;;-1.01;88.41
61205;BME280;47068;55.780;37.520;2024-02-23T01:38:09;100188.47;;;-1.07;87.27
61205;BME280;47068;55.780;37.520;2024-02-23T01:40:35;100198.06;;;-1.08;87.04
61205;BME280;47068;55.780;37.520;2024-02-23T01:43:04;100192.19;;;-1.11;86.98
61205;BME280;47068;55.780;37.520;2024-02-23T01:45:31;100166.47;;;-1.19;87.58
61205;BME280;47068;55.780;37.520;2024-02-23T01:47:57;100189.78;;;-0.99;87.06
61205;BME280;47068;55.780;37.520;2024-02-23T01:50:23;100181.41;;;-1.05;86.41
61205;BME280;47068;55.780;37.520;2024-02-23T01:52:49;100187.38;;;-1.03;87.34
61205;BME280;47068;55.780;37.520;2024-02-23T01:55:17;100175.22;;;-1.20;86.66
61205;BME280;47068;55.780;37.520;2024-02-23T01:57:45;100186.13;;;-1.12;87.06
61205;BME280;47068;55.780;37.520;2024-02-23T02:00:11;100188.41;;;-1.06;86.58
61205;BME280;47068;55.780;37.520;2024-02-23T02:02:40;100165.44;;;-1.16;86.08
61205;BME280;47068;55.780;37.520;2024-02-23T02:05:06;100192.84;;;-1.08;86.17
61205;BME280;47068;55.780;37.520;2024-02-23T02:07:33;100185.28;;;-1.12;86.63
61205;BME280;47068;55.780;37.520;2024-02-23T02:09:58;100163.31;;;-1.26;86.23
61205;BME280;47068;55.780;37.520;2024-02-23T02:12:27;100174.28;;;-1.19;85.95
61205;BME280;47068;55.780;37.520;2024-02-23T02:14:53;100179.88;;;-1.09;86.59
61205;BME280;47068;55.780;37.520;2024-02-23T02:17:19;100176.94;;;-1.03;86.12
61205;BME280;47068;55.780;37.520;2024-02-23T02:19:48;100172.16;;;-1.11;85.95
61205;BME280;47068;55.780;37.520;2024-02-23T02:22:13;100165.91;;;-1.08;85.74
61205;BME280;47068;55.780;37.520;2024-02-23T02:24:39;100175.16;;;-1.18;85.76
61205;BME280;47068;55.780;37.520;2024-02-23T02:27:07;100174.13;;;-1.16;86.15
61205;BME280;47068;55.780;37.520;2024-02-23T02:29:34;100178.88;;;-1.07;86.00
61205;BME280;47068;55.780;37.520;2024-02-23T02:32:00;100184.94;;;-1.06;85.71
61205;BME280;47068;55.780;37.520;2024-02-23T02:34:25;100188.34;;;-1.04;85.40
61205;BME280;47068;55.780;37.520;2024-02-23T02:36:51;100150.41;;;-1.29;85.46
61205;BME280;47068;55.780;37.520;2024-02-23T02:39:16;100184.56;;;-1.16;85.49
61205;BME280;47068;55.780;37.520;2024-02-23T02:41:42;100191.16;;;-1.09;85.75
61205;BME280;47068;55.780;37.520;2024-02-23T02:44:07;100190.31;;;-1.09;85.60
61205;BME280;47068;55.780;37.520;2024-02-23T02:46:35;100166.34;;;-1.17;85.34
61205;BME280;47068;55.780;37.520;2024-02-23T02:49:00;100194.03;;;-1.13;85.36
61205;BME280;47068;55.780;37.520;2024-02-23T02:51:26;100156.56;;;-1.30;85.89
61205;BME280;47068;55.780;37.520;2024-02-23T02:53:51;100178.81;;;-1.05;85.67
61205;BME280;47068;55.780;37.520;2024-02-23T02:56:17;100181.25;;;-1.02;85.15
61205;BME280;47068;55.780;37.520;2024-02-23T02:58:42;100174.97;;;-0.98;85.38
61205;BME280;47068;55.780;37.520;2024-02-23T03:01:08;100178.41;;;-0.98;85.26
61205;BME280;47068;55.780;37.520;2024-02-23T03:03:34;100186.16;;;-0.96;84.97
61205;BME280;47068;55.780;37.520;2024-02-23T03:05:59;100183.34;;;-0.76;84.96
61205;BME280;47068;55.780;37.520;2024-02-23T03:08:25;100177.97;;;-0.73;84.34
61205;BME280;47068;55.780;37.520;2024-02-23T03:10:51;100170.19;;;-0.90;84.13
61205;BME280;47068;55.780;37.520;2024-02-23T03:13:16;100164.97;;;-0.90;84.14
61205;BME280;47068;55.780;37.520;2024-02-23T03:15:42;100175.22;;;-0.87;83.88
61205;BME280;47068;55.780;37.520;2024-02-23T03:18:07;100200.88;;;-0.78;84.07
61205;BME280;47068;55.780;37.520;2024-02-23T03:20:35;100202.72;;;-0.80;84.39
61205;BME280;47068;55.780;37.520;2024-02-23T03:23:00;100205.19;;;-0.77;84.45
61205;BME280;47068;55.780;37.520;2024-02-23T03:25:29;100216.91;;;-0.68;84.42
61205;BME280;47068;55.780;37.520;2024-02-23T03:27:54;100204.78;;;-0.69;84.38
61205;BME280;47068;55.780;37.520;2024-02-23T03:30:20;100210.09;;;-0.71;83.63
61205;BME280;47068;55.780;37.520;2024-02-23T03:32:45;100201.63;;;-0.76;84.16
61205;BME280;47068;55.780;37.520;2024-02-23T03:35:12;100206.97;;;-0.77;84.37
61205;BME280;47068;55.780;37.520;2024-02-23T03:37:38;100194.22;;;-0.84;84.07
61205;BME280;47068;55.780;37.520;2024-02-23T03:40:07;100210.16;;;-0.72;84.16
61205;BME280;47068;55.780;37.520;2024-02-23T03:42:33;100215.31;;;-0.71;84.23
61205;BME280;47068;55.780;37.520;2024-02-23T03:44:59;100219.38;;;-0.65;84.07
61205;BME280;47068;55.780;37.520;2024-02-23T03:47:24;99981.84;;;-2.16;84.04
61205;BME280;47068;55.780;37.520;2024-02-23T03:49:49;100227.88;;;-0.62;83.96
61205;BME280;47068;55.780;37.520;2024-02-23T03:52:15;100232.75;;;-0.71;83.99
61205;BME280;47068;55.780;37.520;2024-02-23T03:54:41;99949.41;;;-2.45;84.15
61205;BME280;47068;55.780;37.520;2024-02-23T03:57:06;100219.38;;;-0.65;84.90
61205;BME280;47068;55.780;37.520;2024-02-23T03:59:32;100227.34;;;-0.51;84.12
61205;BME280;47068;55.780;37.520;2024-02-23T04:01:57;100212.06;;;-0.59;83.83
61205;BME280;47068;55.780;37.520;2024-02-23T04:04:22;100226.47;;;-0.52;83.98
61205;BME280;47068;55.780;37.520;2024-02-23T04:06:48;100231.00;;;-0.55;83.92
61205;BME280;47068;55.780;37.520;2024-02-23T04:09:13;100236.78;;;-0.49;84.43
61205;BME280;47068;55.780;37.520;2024-02-23T04:11:39;100233.94;;;-0.44;84.20
61205;BME280;47068;55.780;37.520;2024-02-23T04:14:04;100232.63;;;-0.53;84.43
61205;BME280;47068;55.780;37.520;2024-02-23T04:16:33;100230.94;;;-0.54;84.75
61205;BME280;47068;55.780;37.520;2024-02-23T04:18:59;100209.63;;;-0.46;85.04
61205;BME280;47068;55.780;37.520;2024-02-23T04:21:25;100242.13;;;-0.19;84.39
61205;BME280;47068;55.780;37.520;2024-02-23T04:23:50;100236.81;;;-0.17;84.40
61205;BME280;47068;55.780;37.520;2024-02-23T04:26:16;100226.78;;;-0.25;83.81
61205;BME280;47068;55.780;37.520;2024-02-23T04:28:42;100231.16;;;-0.25;83.69
61205;BME280;47068;55.780;37.520;2024-02-23T04:31:08;100224.91;;;-0.38;83.46
61205;BME280;47068;55.780;37.520;2024-02-23T04:33:34;100237.97;;;-0.38;84.08
61205;BME280;47068;55.780;37.520;2024-02-23T04:36:01;100240.16;;;-0.47;83.96
61205;BME280;47068;55.780;37.520;2024-02-23T04:38:26;100227.84;;;-0.45;84.16
61205;BME280;47068;55.780;37.520;2024-02-23T04:40:52;100236.97;;;-0.36;84.70
61205;BME280;47068;55.780;37.520;2024-02-23T04:43:17;100193.38;;;-0.84;84.46
61205;BME280;47068;55.780;37.520;2024-02-23T04:45:43;100226.88;;;-0.59;84.28
61205;BME280;47068;55.780;37.520;2024-02-23T04:48:08;100254.84;;;-0.44;84.48
61205;BME280;47068;55.780;37.520;2024-02-23T04:50:33;100248.00;;;-0.47;84.49
61205;BME280;47068;55.780;37.520;2024-02-23T04:52:59;100250.53;;;-0.45;84.40
61205;BME280;47068;55.780;37.520;2024-02-23T04:55:24;100251.38;;;-0.45;84.45
61205;BME280;47068;55.780;37.520;2024-02-23T04:57:50;100247.13;;;-0.47;84.50
61205;BME280;47068;55.780;37.520;2024-02-23T05:00:16;100247.03;;;-0.28;84.80
61205;BME280;47068;55.780;37.520;2024-02-23T05:02:42;100251.63;;;-0.33;84.43
61205;BME280;47068;55.780;37.520;2024-02-23T05:05:08;100247.53;;;-0.22;84.67
61205;BME280;47068;55.780;37.520;2024-02-23T05:07:34;100239.06;;;-0.43;84.08
61205;BME280;47068;55.780;37.520;2024-02-23T05:09:59;100265.97;;;-0.41;84.07
61205;BME280;47068;55.780;37.520;2024-02-23T05:12:25;100239.69;;;-0.55;84.52
61205;BME280;47068;55.780;37.520;2024-02-23T05:14:51;100259.16;;;-0.43;84.62
61205;BME280;47068;55.780;37.520;2024-02-23T05:17:16;100273.19;;;-0.28;84.50
61205;BME280;47068;55.780;37.520;2024-02-23T05:19:42;100241.06;;;-0.48;84.06
61205;BME280;47068;55.780;37.520;2024-02-23T05:22:08;100263.88;;;-0.34;84.42
61205;BME280;47068;55.780;37.520;2024-02-23T05:24:33;100267.94;;;-0.28;84.81
61205;BME280;47068;55.780;37.520;2024-02-23T05:26:59;100250.06;;;-0.36;84.40
61205;BME280;47068;55.780;37.520;2024-02-23T05:29:27;100252.41;;;-0.31;84.83
61205;BME280;47068;55.780;37.520;2024-02-23T05:31:53;100275.91;;;-0.14;84.62
61205;BME280;47068;55.780;37.520;2024-02-23T05:34:19;100273.59;;;-0.20;84.12
61205;BME280;47068;55.780;37.520;2024-02-23T05:36:45;100255.03;;;-0.31;84.49
61205;BME280;47068;55.780;37.520;2024-02-23T05:39:14;100275.94;;;-0.31;84.45
61205;BME280;47068;55.780;37.520;2024-02-23T05:41:41;100282.03;;;-0.31;85.02
61205;BME280;47068;55.780;37.520;2024-02-23T05:44:07;100282.88;;;-0.30;84.60
61205;BME280;47068;55.780;37.520;2024-02-23T05:46:36;100290.84;;;-0.33;85.14
61205;BME280;47068;55.780;37.520;2024-02-23T05:49:03;100270.28;;;-0.40;85.41
61205;BME280;47068;55.780;37.520;2024-02-23T05:51:31;100287.38;;;-0.17;84.85
61205;BME280;47068;55.780;37.520;2024-02-23T05:53:57;100299.66;;;-0.19;84.70
61205;BME280;47068;55.780;37.520;2024-02-23T05:56:24;100281.63;;;-0.23;84.69
61205;BME280;47068;55.780;37.520;2024-02-23T05:58:50;100288.69;;;-0.25;84.67
61205;BME280;47068;55.780;37.520;2024-02-23T06:01:17;100272.84;;;-0.22;85.07
61205;BME280;47068;55.780;37.520;2024-02-23T06:03:43;100058.00;;;-1.42;84.24
61205;BME280;47068;55.780;37.520;2024-02-23T06:06:10;100294.03;;;-0.11;83.89
61205;BME280;47068;55.780;37.520;2024-02-23T06:08:36;100278.34;;;-0.11;86.29
61205;BME280;47068;55.780;37.520;2024-02-23T06:11:02;100296.69;;;0.52;84.25
61205;BME280;47068;55.780;37.520;2024-02-23T06:13:29;100303.19;;;0.29;82.55
61205;BME280;47068;55.780;37.520;2024-02-23T06:15:54;100282.16;;;-0.01;83.13
61205;BME280;47068;55.780;37.520;2024-02-23T06:18:20;100297.34;;;-0.08;83.34
61205;BME280;47068;55.780;37.520;2024-02-23T06:20:47;100301.03;;;-0.12;83.96
61205;BME280;47068;55.780;37.520;2024-02-23T06:23:13;100293.84;;;-0.24;84.10
61205;BME280;47068;55.780;37.520;2024-02-23T06:25:38;100276.59;;;-0.44;84.67
61205;BME280;47068;55.780;37.520;2024-02-23T06:28:05;100300.06;;;-0.26;84.49
61205;BME280;47068;55.780;37.520;2024-02-23T06:30:31;100302.72;;;-0.44;85.04
61205;BME280;47068;55.780;37.520;2024-02-23T06:32:57;100305.28;;;-0.42;85.17
61205;BME280;47068;55.780;37.520;2024-02-23T06:35:23;100308.88;;;-0.45;85.83
61205;BME280;47068;55.780;37.520;2024-02-23T06:37:48;100299.94;;;-0.41;85.80
61205;BME280;47068;55.780;37.520;2024-02-23T06:40:14;100307.19;;;-0.46;85.87
61205;BME280;47068;55.780;37.520;2024-02-23T06:42:39;100310.84;;;-0.32;86.20
61205;BME280;47068;55.780;37.520;2024-02-23T06:45:05;100316.59;;;-0.26;85.32
61205;BME280;47068;55.780;37.520;2024-02-23T06:47:31;100309.81;;;-0.46;85.14
61205;BME280;47068;55.780;37.520;2024-02-23T06:49:56;100320.06;;;-0.58;86.14
61205;BME280;47068;55.780;37.520;2024-02-23T06:52:22;100313.34;;;-0.47;85.98
61205;BME280;47068;55.780;37.520;2024-02-23T06:54:48;100310.56;;;-0.44;85.64
61205;BME280;47068;55.780;37.520;2024-02-23T06:57:14;100310.31;;;-0.39;85.66
61205;BME280;47068;55.780;37.520;2024-02-23T06:59:39;100307.31;;;-0.31;85.43
61205;BME280;47068;55.780;37.520;2024-02-23T07:02:05;100310.72;;;-0.29;85.06
61205;BME280;47068;55.780;37.520;2024-02-23T07:04:31;100202.09;;;-1.18;84.65
61205;BME280;47068;55.780;37.520;2024-02-23T07:06:57;100301.50;;;-0.36;84.85
61205;BME280;47068;55.780;37.520;2024-02-23T07:09:22;100324.78;;;-0.32;84.45
61205;BME280;47068;55.780;37.520;2024-02-23T07:11:48;100325.88;;;-0.36;84.66
61205;BME280;47068;55.780;37.520;2024-02-23T07:14:13;100330.63;;;-0.44;84.79
61205;BME280;47068;55.780;37.520;2024-02-23T07:16:42;100326.59;;;-0.34;84.93
61205;BME280;47068;55.780;37.520;2024-02-23T07:19:07;100302.41;;;-0.37;84.78
61205;BME280;47068;55.780;37.520;2024-02-23T07:21:33;100319.47;;;-0.30;84.05
61205;BME280;47068;55.780;37.520;2024-02-23T07:23:59;100310.63;;;-0.28;84.27
61205;BME280;47068;55.780;37.520;2024-02-23T07:26:25;100330.38;;;-0.22;83.76
61205;BME280;47068;55.780;37.520;2024-02-23T07:28:53;100335.94;;;-0.28;83.94
61205;BME280;47068;55.780;37.520;2024-02-23T07:31:19;100335.75;;;-0.25;83.97
61205;BME280;47068;55.780;37.520;2024-02-23T07:33:44;100320.06;;;-0.25;83.75
61205;BME280;47068;55.780;37.520;2024-02-23T07:36:14;100324.78;;;-0.32;83.77
61205;BME280;47068;55.780;37.520;2024-02-23T07:38:40;100318.88;;;-0.35;83.74
61205;BME280;47068;55.780;37.520;2024-02-23T07:41:05;100320.06;;;-0.25;84.05
61205;BME280;47068;55.780;37.520;2024-02-23T07:43:30;100322.97;;;-0.14;83.59
61205;BME280;47068;55.780;37.520;2024-02-23T07:45:56;100312.22;;;-0.25;83.06
61205;BME280;47068;55.780;37.520;2024-02-23T07:48:21;100327.19;;;-0.12;83.22
61205;BME280;47068;55.780;37.520;2024-02-23T07:50:47;100338.88;;;-0.02;82.95
61205;BME280;47068;55.780;37.520;2024-02-23T07:53:12;100323.78;;;-0.14;82.63
61205;BME280;47068;55.780;37.520;2024-02-23T07:55:38;100325.22;;;-0.24;83.02
61205;BME280;47068;55.780;37.520;2024-02-23T07:58:03;100329.41;;;-0.04;83.17
61205;BME280;47068;55.780;37.520;2024-02-23T08:00:29;100324.50;;;-0.10;82.44
61205;BME280;47068;55.780;37.520;2024-02-23T08:02:55;100327.88;;;-0.08;82.74
61205;BME280;47068;55.780;37.520;2024-02-23T08:05:25;100338.66;;;-0.14;82.63
61205;BME280;47068;55.780;37.520;2024-02-23T08:07:51;100237.66;;;-0.65;82.82
61205;BME280;47068;55.780;37.520;2024-02-23T08:10:16;100331.25;;;-0.06;82.48
61205;BME280;47068;55.780;37.520;2024-02-23T08:12:41;100301.97;;;-0.46;83.24
61205;BME280;47068;55.780;37.520;2024-02-23T08:15:07;100333.59;;;-0.17;83.09
61205;BME280;47068;55.780;37.520;2024-02-23T08:17:33;100320.00;;;-0.24;83.11
61205;BME280;47068;55.780;37.520;2024-02-23T08:19:58;100338.66;;;-0.14;83.28
61205;BME280;47068;55.780;37.520;2024-02-23T08:22:24;100310.53;;;-0.26;83.55
61205;BME280;47068;55.780;37.520;2024-02-23T08:24:49;100343.34;;;0.12;82.45
61205;BME280;47068;55.780;37.520;2024-02-23T08:27:15;100339.97;;;0.10;82.17
61205;BME280;47068;55.780;37.520;2024-02-23T08:29:40;100349.78;;;0.22;81.74
61205;BME280;47068;55.780;37.520;2024-02-23T08:32:06;100359.06;;;0.12;82.42
61205;BME280;47068;55.780;37.520;2024-02-23T08:34:32;100347.44;;;0.00;82.37
61205;BME280;47068;55.780;37.520;2024-02-23T08:36:58;100342.84;;;0.06;82.82
61205;BME280;47068;55.780;37.520;2024-02-23T08:39:23;100350.88;;;0.18;82.62
61205;BME280;47068;55.780;37.520;2024-02-23T08:41:49;100352.06;;;0.28;82.89
61205;BME280;47068;55.780;37.520;2024-02-23T08:44:16;100357.13;;;0.31;82.01
61205;BME280;47068;55.780;37.520;2024-02-23T08:46:42;100335.75;;;0.23;82.05
61205;BME280;47068;55.780;37.520;2024-02-23T08:49:07;100352.25;;;0.41;81.95
61205;BME280;47068;55.780;37.520;2024-02-23T08:51:33;100367.63;;;0.47;81.94
61205;BME280;47068;55.780;37.520;2024-02-23T08:53:58;100349.22;;;0.33;81.68
61205;BME280;47068;55.780;37.520;2024-02-23T08:56:29;100366.41;;;0.37;81.77
61205;BME280;47068;55.780;37.520;2024-02-23T08:58:55;100349.72;;;0.39;82.18
61205;BME280;47068;55.780;37.520;2024-02-23T09:01:20;100372.16;;;0.44;81.96
61205;BME280;47068;55.780;37.520;2024-02-23T09:03:46;100362.38;;;0.47;82.53
61205;BME280;47068;55.780;37.520;2024-02-23T09:06:11;100358.31;;;0.42;82.24
61205;BME280;47068;55.780;37.520;2024-02-23T09:08:37;100368.47;;;0.48;82.10
61205;BME280;47068;55.780;37.520;2024-02-23T09:11:02;100374.72;;;0.61;81.72
61205;BME280;47068;55.780;37.520;2024-02-23T09:13:28;100366.69;;;0.48;81.45
61205;BME280;47068;55.780;37.520;2024-02-23T09:15:55;100358.16;;;0.45;81.47
61205;BME280;47068;55.780;37.520;2024-02-23T09:18:20;100378.41;;;0.57;81.31
61205;BME280;47068;55.780;37.520;2024-02-23T09:20:46;100351.06;;;0.47;81.22
61205;BME280;47068;55.780;37.520;2024-02-23T09:23:11;100345.06;;;0.45;81.29
61205;BME280;47068;55.780;37.520;2024-02-23T09:25:37;100367.78;;;0.60;81.71
61205;BME280;47068;55.780;37.520;2024-02-23T09:28:03;100362.56;;;0.75;81.05
61205;BME280;47068;55.780;37.520;2024-02-23T09:30:29;100369.22;;;0.81;80.71
61205;BME280;47068;55.780;37.520;2024-02-23T09:32:54;100354.94;;;0.71;80.61
61205;BME280;47068;55.780;37.520;2024-02-23T09:35:20;100372.19;;;0.75;81.10
61205;BME280;47068;55.780;37.520;2024-02-23T09:37:45;100375.38;;;0.80;80.33
61205;BME280;47068;55.780;37.520;2024-02-23T09:40:11;100366.84;;;0.76;80.28
61205;BME280;47068;55.780;37.520;2024-02-23T09:42:38;100366.75;;;0.78;80.83
61205;BME280;47068;55.780;37.520;2024-02-23T09:45:05;100381.19;;;0.85;80.52
61205;BME280;47068;55.780;37.520;2024-02-23T09:47:31;100361.66;;;0.91;80.60
61205;BME280;47068;55.780;37.520;2024-02-23T09:49:56;100366.63;;;1.11;80.03
61205;BME280;47068;55.780;37.520;2024-02-23T09:52:23;100369.41;;;1.24;78.93
61205;BME280;47068;55.780;37.520;2024-02-23T09:54:49;100359.44;;;1.14;78.97
61205;BME280;47068;55.780;37.520;2024-02-23T09:57:15;100364.84;;;1.11;78.82
61205;BME280;47068;55.780;37.520;2024-02-23T09:59:41;100372.72;;;1.11;79.65
61205;BME280;47068;55.780;37.520;2024-02-23T10:02:08;100377.28;;;1.24;79.66
61205;BME280;47068;55.780;37.520;2024-02-23T10:04:37;100368.56;;;1.23;78.67
61205;BME280;47068;55.780;37.520;2024-02-23T10:07:07;100384.34;;;1.37;78.63
61205;BME280;47068;55.780;37.520;2024-02-23T10:09:33;100372.81;;;1.40;79.83
61205;BME280;47068;55.780;37.520;2024-02-23T10:12:00;100374.75;;;1.66;79.69
61205;BME280;47068;55.780;37.520;2024-02-23T10:14:26;100370.00;;;1.73;78.82
61205;BME280;47068;55.780;37.520;2024-02-23T10:16:52;100374.19;;;1.75;78.45
61205;BME280;47068;55.780;37.520;2024-02-23T10:19:19;100366.88;;;1.80;78.48
61205;BME280;47068;55.780;37.520;2024-02-23T10:21:46;100370.84;;;2.02;78.20
61205;BME280;47068;55.780;37.520;2024-02-23T10:24:11;100385.41;;;2.07;77.25
61205;BME280;47068;55.780;37.520;2024-02-23T10:26:37;100374.22;;;1.89;77.33
61205;BME280;47068;55.780;37.520;2024-02-23T10:29:02;100325.50;;;1.71;77.74
61205;BME280;47068;55.780;37.520;2024-02-23T10:31:31;100376.31;;;2.13;77.79
61205;BME280;47068;55.780;37.520;2024-02-23T10:33:59;100380.41;;;2.17;77.34
61205;BME280;47068;55.780;37.520;2024-02-23T10:36:27;100378.25;;;2.37;76.56
61205;BME280;47068;55.780;37.520;2024-02-23T10:38:56;100380.31;;;2.47;75.81
61205;BME280;47068;55.780;37.520;2024-02-23T10:41:25;100368.69;;;2.36;76.12
61205;BME280;47068;55.780;37.520;2024-02-23T10:43:52;100361.84;;;2.34;76.23
61205;BME280;47068;55.780;37.520;2024-02-23T10:46:18;100386.78;;;2.41;76.18
61205;BME280;47068;55.780;37.520;2024-02-23T10:48:45;100388.75;;;2.52;76.00
61205;BME280;47068;55.780;37.520;2024-02-23T10:51:13;100397.84;;;2.60;75.71
61205;BME280;47068;55.780;37.520;2024-02-23T10:53:40;100392.75;;;2.57;75.21
61205;BME280;47068;55.780;37.520;2024-02-23T10:56:05;100401.97;;;2.50;75.88
61205;BME280;47068;55.780;37.520;2024-02-23T10:58:32;100391.56;;;2.49;76.13
61205;BME280;47068;55.780;37.520;2024-02-23T11:01:02;100384.25;;;2.54;75.79
61205;BME280;47068;55.780;37.520;2024-02-23T11:03:30;100393.34;;;2.48;75.60
61205;BME280;47068;55.780;37.520;2024-02-23T11:05:56;100378.00;;;2.14;76.48
61205;BME280;47068;55.780;37.520;2024-02-23T11:08:22;100398.63;;;2.34;77.02
61205;BME280;47068;55.780;37.520;2024-02-23T11:10:51;100381.56;;;2.27;76.66
61205;BME280;47068;55.780;37.520;2024-02-23T11:13:34;100394.09;;;2.36;77.17
61205;BME280;47068;55.780;37.520;2024-02-23T11:16:08;100400.28;;;2.49;76.85
61205;BME280;47068;55.780;37.520;2024-02-23T11:18:39;100403.00;;;2.62;76.80
61205;BME280;47068;55.780;37.520;2024-02-23T11:21:05;100405.34;;;2.52;77.10
61205;BME280;47068;55.780;37.520;2024-02-23T11:23:47;100410.22;;;2.58;77.07
61205;BME280;47068;55.780;37.520;2024-02-23T11:26:17;100415.84;;;2.52;76.63
61205;BME280;47068;55.780;37.520;2024-02-23T11:28:51;100409.66;;;2.39;77.38
61205;BME280;47068;55.780;37.520;2024-02-23T11:31:29;100390.75;;;2.34;77.96
61205;BME280;47068;55.780;37.520;2024-02-23T11:33:57;100391.13;;;2.28;77.88
61205;BME280;47068;55.780;37.520;2024-02-23T11:36:31;100410.31;;;2.43;77.95
61205;BME280;47068;55.780;37.520;2024-02-23T11:38:59;100404.78;;;2.47;77.72
61205;BME280;47068;55.780;37.520;2024-02-23T11:41:25;100403.00;;;2.48;77.63
61205;BME280;47068;55.780;37.520;2024-02-23T11:43:52;100398.16;;;2.42;77.29
61205;BME280;47068;55.780;37.520;2024-02-23T11:46:19;100391.59;;;2.34;78.18
61205;BME280;47068;55.780;37.520;2024-02-23T11:48:45;100398.63;;;2.20;78.37
61205;BME280;47068;55.780;37.520;2024-02-23T11:51:22;100405.66;;;2.19;78.51
61205;BME280;47068;55.780;37.520;2024-02-23T11:53:49;100371.13;;;1.97;78.95
61205;BME280;47068;55.780;37.520;2024-02-23T11:56:15;100412.28;;;2.25;79.47
61205;BME280;47068;55.780;37.520;2024-02-23T11:58:42;100414.53;;;2.17;79.36
61205;BME280;47068;55.780;37.520;2024-02-23T12:01:07;100378.53;;;2.05;79.29
61205;BME280;47068;55.780;37.520;2024-02-23T12:03:34;100398.25;;;2.26;79.33
61205;BME280;47068;55.780;37.520;2024-02-23T12:06:03;100405.56;;;2.07;79.86
61205;BME280;47068;55.780;37.520;2024-02-23T12:08:30;100386.03;;;2.11;80.63
61205;BME280;47068;55.780;37.520;2024-02-23T12:11:04;100402.34;;;2.16;79.95
61205;BME280;47068;55.780;37.520;2024-02-23T12:13:30;100415.84;;;2.24;80.62
61205;BME280;47068;55.780;37.520;2024-02-23T12:15:57;100406.19;;;2.38;80.08
61205;BME280;47068;55.780;37.520;2024-02-23T12:18:23;100411.53;;;2.37;80.04
61205;BME280;47068;55.780;37.520;2024-02-23T12:20:51;100403.66;;;2.37;80.11
61205;BME280;47068;55.780;37.520;2024-02-23T12:23:17;100412.84;;;2.44;80.01
61205;BME280;47068;55.780;37.520;2024-02-23T12:25:53;100407.34;;;2.49;80.54
61205;BME280;47068;55.780;37.520;2024-02-23T12:28:20;100407.81;;;2.41;80.16
61205;BME280;47068;55.780;37.520;2024-02-23T12:30:45;100414.38;;;2.34;80.71
61205;BME280;47068;55.780;37.520;2024-02-23T12:33:15;100421.78;;;2.27;80.78
61205;BME280;47068;55.780;37.520;2024-02-23T12:35:40;100409.84;;;2.22;81.70
61205;BME280;47068;55.780;37.520;2024-02-23T12:38:06;100402.19;;;2.19;81.70